sensor_id;sensor_type;location;lat;lon;timestamp;temperature;humidity
8939;DHT22;4504;48.810;9.172;2023-02-28T00:00:51;0.70;91.30
8939;DHT22;4504;48.810;9.172;2023-02-28T00:03:17;0.70;91.50
8939;DHT22;4504;48.810;9.172;2023-02-28T00:05:44;0.70;91.60
8939;DHT22;4504;48.810;9.172;2023-02-28T00:08:11;0.70;91.70
8939;DHT22;4504;48.810;9.172;2023-02-28T00:10:38;0.70;91.70
8939;DHT22;4504;48.810;9.172;2023-02-28T00:13:06;0.60;91.80
8939;DHT22;4504;48.810;9.172;2023-02-28T00:15:35;0.60;91.80
8939;DHT22;4504;48.810;9.172;2023-02-28T00:18:02;0.60;91.90
8939;DHT22;4504;48.810;9.172;2023-02-28T00:20:29;0.60;91.80
8939;DHT22;4504;48.810;9.172;2023-02-28T00:22:57;0.60;91.90
8939;DHT22;4504;48.810;9.172;2023-02-28T00:25:25;0.50;91.80
8939;DHT22;4504;48.810;9.172;2023-02-28T00:27:52;0.50;92.00
8939;DHT22;4504;48.810;9.172;2023-02-28T00:30:20;0.50;92.00
8939;DHT22;4504;48.810;9.172;2023-02-28T00:32:50;0.40;92.10
8939;DHT22;4504;48.810;9.172;2023-02-28T00:35:17;0.40;92.30
8939;DHT22;4504;48.810;9.172;2023-02-28T00:37:44;0.40;92.50
8939;DHT22;4504;48.810;9.172;2023-02-28T00:40:11;0.30;92.60
8939;DHT22;4504;48.810;9.172;2023-02-28T00:42:39;0.30;92.70
8939;DHT22;4504;48.810;9.172;2023-02-28T00:45:07;0.30;92.90
8939;DHT22;4504;48.810;9.172;2023-02-28T00:47:37;0.30;93.10
8939;DHT22;4504;48.810;9.172;2023-02-28T00:50:06;0.20;93.20
8939;DHT22;4504;48.810;9.172;2023-02-28T00:52:36;0.20;93.30
8939;DHT22;4504;48.810;9.172;2023-02-28T00:55:03;0.20;93.60
8939;DHT22;4504;48.810;9.172;2023-02-28T00:57:30;0.20;93.70
8939;DHT22;4504;48.810;9.172;2023-02-28T00:59:57;0.20;93.80
8939;DHT22;4504;48.810;9.172;2023-02-28T01:02:24;0.20;94.00
8939;DHT22;4504;48.810;9.172;2023-02-28T01:04:52;0.20;94.10
8939;DHT22;4504;48.810;9.172;2023-02-28T01:07:20;0.20;94.20
8939;DHT22;4504;48.810;9.172;2023-02-28T01:09:47;0.20;94.30
8939;DHT22;4504;48.810;9.172;2023-02-28T01:12:14;0.20;94.40
8939;DHT22;4504;48.810;9.172;2023-02-28T01:14:42;0.10;94.50
8939;DHT22;4504;48.810;9.172;2023-02-28T01:17:09;0.20;94.70
8939;DHT22;4504;48.810;9.172;2023-02-28T01:19:36;0.10;94.80
8939;DHT22;4504;48.810;9.172;2023-02-28T01:22:04;0.20;94.90
8939;DHT22;4504;48.810;9.172;2023-02-28T01:24:33;0.20;95.10
8939;DHT22;4504;48.810;9.172;2023-02-28T01:26:59;0.20;95.20
8939;DHT22;4504;48.810;9.172;2023-02-28T01:29:27;0.20;95.40
8939;DHT22;4504;48.810;9.172;2023-02-28T01:31:53;0.20;95.50
8939;DHT22;4504;48.810;9.172;2023-02-28T01:34:20;0.20;95.60
8939;DHT22;4504;48.810;9.172;2023-02-28T01:36:47;0.20;95.80
8939;DHT22;4504;48.810;9.172;2023-02-28T01:39:14;0.20;96.00
8939;DHT22;4504;48.810;9.172;2023-02-28T01:41:42;0.10;96.50
8939;DHT22;4504;48.810;9.172;2023-02-28T01:47:10;0.10;96.60
8939;DHT22;4504;48.810;9.172;2023-02-28T01:49:37;0.10;96.90
8939;DHT22;4504;48.810;9.172;2023-02-28T01:52:04;0.10;97.00
8939;DHT22;4504;48.810;9.172;2023-02-28T01:54:33;0.10;97.50
8939;DHT22;4504;48.810;9.172;2023-02-28T01:57:05;0.10;97.30
8939;DHT22;4504;48.810;9.172;2023-02-28T01:59:37;0.00;97.40
8939;DHT22;4504;48.810;9.172;2023-02-28T02:02:06;0.10;97.70
8939;DHT22;4504;48.810;9.172;2023-02-28T02:04:37;0.20;98.00
8939;DHT22;4504;48.810;9.172;2023-02-28T02:07:05;0.00;98.20
8939;DHT22;4504;48.810;9.172;2023-02-28T02:09:32;0.00;98.40
8939;DHT22;4504;48.810;9.172;2023-02-28T02:12:09;0.00;98.60
8939;DHT22;4504;48.810;9.172;2023-02-28T02:14:52;-0.10;98.80
8939;DHT22;4504;48.810;9.172;2023-02-28T02:17:30;-0.10;99.00
8939;DHT22;4504;48.810;9.172;2023-02-28T02:20:22;-0.10;99.20
8939;DHT22;4504;48.810;9.172;2023-02-28T02:23:26;0.00;99.30
8939;DHT22;4504;48.810;9.172;2023-02-28T02:26:02;-0.10;99.40
8939;DHT22;4504;48.810;9.172;2023-02-28T02:29:03;-0.10;99.60
8939;DHT22;4504;48.810;9.172;2023-02-28T02:31:56;-0.10;99.80
8939;DHT22;4504;48.810;9.172;2023-02-28T02:34:43;-0.10;99.90
8939;DHT22;4504;48.810;9.172;2023-02-28T02:37:28;-0.10;99.90
8939;DHT22;4504;48.810;9.172;2023-02-28T02:40:03;-0.10;99.90
8939;DHT22;4504;48.810;9.172;2023-02-28T02:42:39;-0.10;99.90
8939;DHT22;4504;48.810;9.172;2023-02-28T02:45:12;0.00;99.90
8939;DHT22;4504;48.810;9.172;2023-02-28T02:47:43;0.00;99.90
8939;DHT22;4504;48.810;9.172;2023-02-28T02:50:15;0.00;99.90
8939;DHT22;4504;48.810;9.172;2023-02-28T02:52:46;0.00;99.90
8939;DHT22;4504;48.810;9.172;2023-02-28T02:55:17;0.10;99.90
8939;DHT22;4504;48.810;9.172;2023-02-28T02:57:48;0.10;99.90
8939;DHT22;4504;48.810;9.172;2023-02-28T03:00:18;0.00;99.90
8939;DHT22;4504;48.810;9.172;2023-02-28T03:02:47;0.00;99.90
8939;DHT22;4504;48.810;9.172;2023-02-28T03:05:21;0.00;99.90
8939;DHT22;4504;48.810;9.172;2023-02-28T03:07:50;0.00;99.90
8939;DHT22;4504;48.810;9.172;2023-02-28T03:10:36;0.00;99.90
8939;DHT22;4504;48.810;9.172;2023-02-28T03:13:23;-0.10;99.90
8939;DHT22;4504;48.810;9.172;2023-02-28T03:16:07;-0.10;99.90
8939;DHT22;4504;48.810;9.172;2023-02-28T03:18:43;-0.10;99.90
8939;DHT22;4504;48.810;9.172;2023-02-28T03:21:18;-0.10;99.90
8939;DHT22;4504;48.810;9.172;2023-02-28T03:23:55;-0.10;99.90
8939;DHT22;4504;48.810;9.172;2023-02-28T03:26:27;-0.10;99.90
8939;DHT22;4504;48.810;9.172;2023-02-28T03:29:02;-0.10;99.90
8939;DHT22;4504;48.810;9.172;2023-02-28T03:31:32;0.00;99.90
8939;DHT22;4504;48.810;9.172;2023-02-28T03:34:02;0.00;99.90
8939;DHT22;4504;48.810;9.172;2023-02-28T03:36:35;0.00;99.90
8939;DHT22;4504;48.810;9.172;2023-02-28T03:39:11;0.00;99.90
8939;DHT22;4504;48.810;9.172;2023-02-28T03:41:43;0.00;99.90
8939;DHT22;4504;48.810;9.172;2023-02-28T03:44:15;0.10;99.90
8939;DHT22;4504;48.810;9.172;2023-02-28T03:46:46;0.00;99.90
8939;DHT22;4504;48.810;9.172;2023-02-28T03:49:18;0.10;99.90
8939;DHT22;4504;48.810;9.172;2023-02-28T03:51:50;0.10;99.90
8939;DHT22;4504;48.810;9.172;2023-02-28T03:54:21;0.10;99.90
8939;DHT22;4504;48.810;9.172;2023-02-28T03:56:52;0.10;99.90
8939;DHT22;4504;48.810;9.172;2023-02-28T03:59:26;0.10;99.90
8939;DHT22;4504;48.810;9.172;2023-02-28T04:01:55;0.10;99.90
8939;DHT22;4504;48.810;9.172;2023-02-28T04:04:24;0.10;99.90
8939;DHT22;4504;48.810;9.172;2023-02-28T04:06:53;0.10;99.90
8939;DHT22;4504;48.810;9.172;2023-02-28T04:09:27;0.10;99.90
8939;DHT22;4504;48.810;9.172;2023-02-28T04:11:54;0.10;99.90
8939;DHT22;4504;48.810;9.172;2023-02-28T04:14:22;0.10;99.90
8939;DHT22;4504;48.810;9.172;2023-02-28T04:16:49;0.10;99.90
8939;DHT22;4504;48.810;9.172;2023-02-28T04:19:17;0.10;99.90
8939;DHT22;4504;48.810;9.172;2023-02-28T04:21:47;0.10;99.90
8939;DHT22;4504;48.810;9.172;2023-02-28T04:24:17;0.10;99.90
8939;DHT22;4504;48.810;9.172;2023-02-28T04:26:46;0.10;99.90
8939;DHT22;4504;48.810;9.172;2023-02-28T04:29:17;0.10;99.90
8939;DHT22;4504;48.810;9.172;2023-02-28T04:31:44;0.10;99.90
8939;DHT22;4504;48.810;9.172;2023-02-28T04:34:11;0.10;99.90
8939;DHT22;4504;48.810;9.172;2023-02-28T04:36:38;0.10;99.90
8939;DHT22;4504;48.810;9.172;2023-02-28T04:39:06;0.10;99.90
8939;DHT22;4504;48.810;9.172;2023-02-28T04:41:34;0.10;99.90
8939;DHT22;4504;48.810;9.172;2023-02-28T04:44:01;0.10;99.90
8939;DHT22;4504;48.810;9.172;2023-02-28T04:46:28;0.10;99.90
8939;DHT22;4504;48.810;9.172;2023-02-28T04:48:56;0.20;99.90
8939;DHT22;4504;48.810;9.172;2023-02-28T04:51:23;0.20;99.90
8939;DHT22;4504;48.810;9.172;2023-02-28T04:53:50;0.20;99.90
8939;DHT22;4504;48.810;9.172;2023-02-28T04:56:18;0.20;99.90
8939;DHT22;4504;48.810;9.172;2023-02-28T04:58:47;0.20;99.90
8939;DHT22;4504;48.810;9.172;2023-02-28T05:01:20;0.20;99.90
8939;DHT22;4504;48.810;9.172;2023-02-28T05:03:47;0.20;99.90
8939;DHT22;4504;48.810;9.172;2023-02-28T05:06:14;0.20;99.90
8939;DHT22;4504;48.810;9.172;2023-02-28T05:08:42;0.20;99.90
8939;DHT22;4504;48.810;9.172;2023-02-28T05:11:14;0.30;99.90
8939;DHT22;4504;48.810;9.172;2023-02-28T05:13:41;0.30;99.90
8939;DHT22;4504;48.810;9.172;2023-02-28T05:16:10;0.30;99.90
8939;DHT22;4504;48.810;9.172;2023-02-28T05:18:37;0.30;99.90
8939;DHT22;4504;48.810;9.172;2023-02-28T05:21:04;0.30;99.90
8939;DHT22;4504;48.810;9.172;2023-02-28T05:23:31;0.30;99.90
8939;DHT22;4504;48.810;9.172;2023-02-28T05:25:59;0.30;99.90
8939;DHT22;4504;48.810;9.172;2023-02-28T05:28:26;0.30;99.90
8939;DHT22;4504;48.810;9.172;2023-02-28T05:30:52;0.30;99.90
8939;DHT22;4504;48.810;9.172;2023-02-28T05:33:21;0.30;99.90
8939;DHT22;4504;48.810;9.172;2023-02-28T05:35:48;0.20;99.90
8939;DHT22;4504;48.810;9.172;2023-02-28T05:38:15;0.20;99.90
8939;DHT22;4504;48.810;9.172;2023-02-28T05:40:42;0.20;99.90
8939;DHT22;4504;48.810;9.172;2023-02-28T05:43:10;0.20;99.90
8939;DHT22;4504;48.810;9.172;2023-02-28T05:45:38;0.30;99.90
8939;DHT22;4504;48.810;9.172;2023-02-28T05:48:05;0.30;99.90
8939;DHT22;4504;48.810;9.172;2023-02-28T05:50:33;0.30;99.90
8939;DHT22;4504;48.810;9.172;2023-02-28T05:53:00;0.30;99.90
8939;DHT22;4504;48.810;9.172;2023-02-28T05:55:27;0.20;99.90
8939;DHT22;4504;48.810;9.172;2023-02-28T05:57:54;0.20;99.90
8939;DHT22;4504;48.810;9.172;2023-02-28T06:00:22;0.20;99.90
8939;DHT22;4504;48.810;9.172;2023-02-28T06:02:49;0.20;99.90
8939;DHT22;4504;48.810;9.172;2023-02-28T06:05:18;0.30;99.90
8939;DHT22;4504;48.810;9.172;2023-02-28T06:07:47;0.30;99.90
8939;DHT22;4504;48.810;9.172;2023-02-28T06:10:14;0.30;99.90
8939;DHT22;4504;48.810;9.172;2023-02-28T06:12:41;0.30;99.90
8939;DHT22;4504;48.810;9.172;2023-02-28T06:15:12;0.30;99.90
8939;DHT22;4504;48.810;9.172;2023-02-28T06:17:40;0.30;99.90
8939;DHT22;4504;48.810;9.172;2023-02-28T06:20:08;0.40;99.90
8939;DHT22;4504;48.810;9.172;2023-02-28T06:22:35;0.40;99.90
8939;DHT22;4504;48.810;9.172;2023-02-28T06:25:04;0.40;99.90
8939;DHT22;4504;48.810;9.172;2023-02-28T06:27:32;0.40;99.90
8939;DHT22;4504;48.810;9.172;2023-02-28T06:29:59;0.40;99.90
8939;DHT22;4504;48.810;9.172;2023-02-28T06:32:26;0.40;99.90
8939;DHT22;4504;48.810;9.172;2023-02-28T06:34:54;0.50;99.90
8939;DHT22;4504;48.810;9.172;2023-02-28T06:37:22;0.50;99.90
8939;DHT22;4504;48.810;9.172;2023-02-28T06:39:51;0.50;99.90
8939;DHT22;4504;48.810;9.172;2023-02-28T06:42:20;0.50;99.90
8939;DHT22;4504;48.810;9.172;2023-02-28T06:44:50;0.50;99.90
8939;DHT22;4504;48.810;9.172;2023-02-28T06:47:17;0.50;99.90
8939;DHT22;4504;48.810;9.172;2023-02-28T06:49:44;0.50;99.90
8939;DHT22;4504;48.810;9.172;2023-02-28T06:52:11;0.50;99.90
8939;DHT22;4504;48.810;9.172;2023-02-28T06:54:38;0.50;99.90
8939;DHT22;4504;48.810;9.172;2023-02-28T06:57:05;0.50;99.90
8939;DHT22;4504;48.810;9.172;2023-02-28T06:59:34;0.60;99.90
8939;DHT22;4504;48.810;9.172;2023-02-28T07:02:02;0.50;99.90
8939;DHT22;4504;48.810;9.172;2023-02-28T07:04:29;0.50;99.90
8939;DHT22;4504;48.810;9.172;2023-02-28T07:06:56;0.50;99.90
8939;DHT22;4504;48.810;9.172;2023-02-28T07:09:23;0.50;99.90
8939;DHT22;4504;48.810;9.172;2023-02-28T07:11:55;0.60;99.90
8939;DHT22;4504;48.810;9.172;2023-02-28T07:14:23;0.50;99.90
8939;DHT22;4504;48.810;9.172;2023-02-28T07:16:51;0.60;99.90
8939;DHT22;4504;48.810;9.172;2023-02-28T07:19:18;0.50;99.90
8939;DHT22;4504;48.810;9.172;2023-02-28T07:21:45;0.60;99.90
8939;DHT22;4504;48.810;9.172;2023-02-28T07:24:12;0.60;99.90
8939;DHT22;4504;48.810;9.172;2023-02-28T07:26:41;0.60;99.90
8939;DHT22;4504;48.810;9.172;2023-02-28T07:29:08;0.60;99.90
8939;DHT22;4504;48.810;9.172;2023-02-28T07:31:35;0.60;99.90
8939;DHT22;4504;48.810;9.172;2023-02-28T07:34:03;0.60;99.90
8939;DHT22;4504;48.810;9.172;2023-02-28T07:36:30;0.60;99.90
8939;DHT22;4504;48.810;9.172;2023-02-28T07:38:58;0.60;99.90
8939;DHT22;4504;48.810;9.172;2023-02-28T07:41:25;0.60;99.90
8939;DHT22;4504;48.810;9.172;2023-02-28T07:43:54;0.70;99.90
8939;DHT22;4504;48.810;9.172;2023-02-28T07:46:21;0.60;99.90
8939;DHT22;4504;48.810;9.172;2023-02-28T07:48:48;0.70;99.90
8939;DHT22;4504;48.810;9.172;2023-02-28T07:51:16;0.70;99.90
8939;DHT22;4504;48.810;9.172;2023-02-28T07:53:43;0.70;99.90
8939;DHT22;4504;48.810;9.172;2023-02-28T07:56:11;0.70;99.90
8939;DHT22;4504;48.810;9.172;2023-02-28T07:58:38;0.70;99.90
8939;DHT22;4504;48.810;9.172;2023-02-28T08:01:05;0.70;99.90
8939;DHT22;4504;48.810;9.172;2023-02-28T08:03:33;0.70;99.90
8939;DHT22;4504;48.810;9.172;2023-02-28T08:06:02;0.80;99.90
8939;DHT22;4504;48.810;9.172;2023-02-28T08:08:31;0.90;99.90
8939;DHT22;4504;48.810;9.172;2023-02-28T08:10:58;0.90;99.90
8939;DHT22;4504;48.810;9.172;2023-02-28T08:13:26;0.90;99.90
8939;DHT22;4504;48.810;9.172;2023-02-28T08:15:53;0.90;99.90
8939;DHT22;4504;48.810;9.172;2023-02-28T08:18:21;0.90;99.90
8939;DHT22;4504;48.810;9.172;2023-02-28T08:20:49;0.90;99.90
8939;DHT22;4504;48.810;9.172;2023-02-28T08:23:16;0.90;99.90
8939;DHT22;4504;48.810;9.172;2023-02-28T08:25:44;0.90;99.90
8939;DHT22;4504;48.810;9.172;2023-02-28T08:28:11;0.90;99.90
8939;DHT22;4504;48.810;9.172;2023-02-28T08:30:38;0.90;99.90
8939;DHT22;4504;48.810;9.172;2023-02-28T08:33:06;0.90;99.90
8939;DHT22;4504;48.810;9.172;2023-02-28T08:35:35;1.00;99.90
8939;DHT22;4504;48.810;9.172;2023-02-28T08:38:02;1.00;99.90
8939;DHT22;4504;48.810;9.172;2023-02-28T08:40:29;1.10;99.90
8939;DHT22;4504;48.810;9.172;2023-02-28T08:42:57;1.10;99.90
8939;DHT22;4504;48.810;9.172;2023-02-28T08:45:25;1.10;99.90
8939;DHT22;4504;48.810;9.172;2023-02-28T08:47:54;1.10;99.90
8939;DHT22;4504;48.810;9.172;2023-02-28T08:50:21;1.20;99.90
8939;DHT22;4504;48.810;9.172;2023-02-28T08:52:48;1.20;99.90
8939;DHT22;4504;48.810;9.172;2023-02-28T08:55:15;1.20;99.90
8939;DHT22;4504;48.810;9.172;2023-02-28T08:57:42;1.20;99.90
8939;DHT22;4504;48.810;9.172;2023-02-28T09:00:12;1.20;99.90
8939;DHT22;4504;48.810;9.172;2023-02-28T09:02:40;1.20;99.90
8939;DHT22;4504;48.810;9.172;2023-02-28T09:05:08;1.20;99.90
8939;DHT22;4504;48.810;9.172;2023-02-28T09:07:35;1.30;99.90
8939;DHT22;4504;48.810;9.172;2023-02-28T09:10:02;1.30;99.90
8939;DHT22;4504;48.810;9.172;2023-02-28T09:12:33;1.30;99.90
8939;DHT22;4504;48.810;9.172;2023-02-28T09:15:01;1.40;99.90
8939;DHT22;4504;48.810;9.172;2023-02-28T09:17:29;1.40;99.90
8939;DHT22;4504;48.810;9.172;2023-02-28T09:19:56;1.50;99.90
8939;DHT22;4504;48.810;9.172;2023-02-28T09:22:23;1.50;99.90
8939;DHT22;4504;48.810;9.172;2023-02-28T09:24:50;1.50;99.90
8939;DHT22;4504;48.810;9.172;2023-02-28T09:27:17;1.60;99.90
8939;DHT22;4504;48.810;9.172;2023-02-28T09:29:44;1.60;99.90
8939;DHT22;4504;48.810;9.172;2023-02-28T09:32:11;1.70;99.90
8939;DHT22;4504;48.810;9.172;2023-02-28T09:34:39;1.70;99.90
8939;DHT22;4504;48.810;9.172;2023-02-28T09:37:06;1.70;99.90
8939;DHT22;4504;48.810;9.172;2023-02-28T09:39:33;1.80;99.90
8939;DHT22;4504;48.810;9.172;2023-02-28T09:42:02;1.90;99.80
8939;DHT22;4504;48.810;9.172;2023-02-28T09:44:33;1.90;99.60
8939;DHT22;4504;48.810;9.172;2023-02-28T09:47:07;1.90;99.50
8939;DHT22;4504;48.810;9.172;2023-02-28T09:49:41;1.90;99.30
8939;DHT22;4504;48.810;9.172;2023-02-28T09:52:12;2.00;99.30
8939;DHT22;4504;48.810;9.172;2023-02-28T09:54:40;2.00;99.20
8939;DHT22;4504;48.810;9.172;2023-02-28T09:57:11;2.10;98.90
8939;DHT22;4504;48.810;9.172;2023-02-28T10:00:04;2.10;98.60
8939;DHT22;4504;48.810;9.172;2023-02-28T10:02:52;2.10;98.50
8939;DHT22;4504;48.810;9.172;2023-02-28T10:05:27;2.10;98.50
8939;DHT22;4504;48.810;9.172;2023-02-28T10:08:05;2.20;98.60
8939;DHT22;4504;48.810;9.172;2023-02-28T10:10:38;2.20;98.30
8939;DHT22;4504;48.810;9.172;2023-02-28T10:13:17;2.20;98.40
8939;DHT22;4504;48.810;9.172;2023-02-28T10:15:49;2.30;98.30
8939;DHT22;4504;48.810;9.172;2023-02-28T10:18:23;2.40;98.30
8939;DHT22;4504;48.810;9.172;2023-02-28T10:20:53;2.40;98.30
8939;DHT22;4504;48.810;9.172;2023-02-28T10:23:25;2.50;98.10
8939;DHT22;4504;48.810;9.172;2023-02-28T10:25:57;2.50;97.60
8939;DHT22;4504;48.810;9.172;2023-02-28T10:28:26;2.50;97.40
8939;DHT22;4504;48.810;9.172;2023-02-28T10:30:54;2.60;97.40
8939;DHT22;4504;48.810;9.172;2023-02-28T10:33:27;2.60;97.60
8939;DHT22;4504;48.810;9.172;2023-02-28T10:35:56;2.70;97.50
8939;DHT22;4504;48.810;9.172;2023-02-28T10:38:25;2.80;97.30
8939;DHT22;4504;48.810;9.172;2023-02-28T10:41:03;2.80;97.10
8939;DHT22;4504;48.810;9.172;2023-02-28T10:43:30;2.90;97.10
8939;DHT22;4504;48.810;9.172;2023-02-28T10:46:03;2.90;96.80
8939;DHT22;4504;48.810;9.172;2023-02-28T10:48:37;3.00;96.90
8939;DHT22;4504;48.810;9.172;2023-02-28T10:51:07;3.00;96.70
8939;DHT22;4504;48.810;9.172;2023-02-28T10:53:47;3.10;96.80
8939;DHT22;4504;48.810;9.172;2023-02-28T10:56:17;3.10;96.60
8939;DHT22;4504;48.810;9.172;2023-02-28T10:58:49;3.20;96.40
8939;DHT22;4504;48.810;9.172;2023-02-28T11:01:18;3.20;96.20
8939;DHT22;4504;48.810;9.172;2023-02-28T11:03:46;3.30;96.40
8939;DHT22;4504;48.810;9.172;2023-02-28T11:06:17;3.40;96.30
8939;DHT22;4504;48.810;9.172;2023-02-28T11:08:50;3.50;96.30
8939;DHT22;4504;48.810;9.172;2023-02-28T11:11:18;3.60;96.10
8939;DHT22;4504;48.810;9.172;2023-02-28T11:13:47;3.70;95.60
8939;DHT22;4504;48.810;9.172;2023-02-28T11:16:16;3.70;95.50
8939;DHT22;4504;48.810;9.172;2023-02-28T11:18:47;3.80;95.20
8939;DHT22;4504;48.810;9.172;2023-02-28T11:21:19;3.80;95.20
8939;DHT22;4504;48.810;9.172;2023-02-28T11:23:49;3.90;95.40
8939;DHT22;4504;48.810;9.172;2023-02-28T11:26:36;4.00;95.30
8939;DHT22;4504;48.810;9.172;2023-02-28T11:29:11;4.10;95.00
8939;DHT22;4504;48.810;9.172;2023-02-28T11:31:39;4.10;94.80
8939;DHT22;4504;48.810;9.172;2023-02-28T11:34:25;4.30;94.70
8939;DHT22;4504;48.810;9.172;2023-02-28T11:36:56;4.40;94.80
8939;DHT22;4504;48.810;9.172;2023-02-28T11:39:24;4.50;94.30
8939;DHT22;4504;48.810;9.172;2023-02-28T11:42:15;4.60;93.90
8939;DHT22;4504;48.810;9.172;2023-02-28T11:44:56;4.60;93.70
8939;DHT22;4504;48.810;9.172;2023-02-28T11:47:32;4.80;93.60
8939;DHT22;4504;48.810;9.172;2023-02-28T11:50:21;4.90;93.50
8939;DHT22;4504;48.810;9.172;2023-02-28T11:52:53;4.90;93.00
8939;DHT22;4504;48.810;9.172;2023-02-28T11:55:24;5.00;92.90
8939;DHT22;4504;48.810;9.172;2023-02-28T11:58:14;5.10;92.90
8939;DHT22;4504;48.810;9.172;2023-02-28T12:03:44;5.20;92.60
8939;DHT22;4504;48.810;9.172;2023-02-28T12:06:19;5.20;92.40
8939;DHT22;4504;48.810;9.172;2023-02-28T12:09:02;5.30;92.20
8939;DHT22;4504;48.810;9.172;2023-02-28T12:11:44;5.30;91.80
8939;DHT22;4504;48.810;9.172;2023-02-28T12:17:14;5.40;92.10
8939;DHT22;4504;48.810;9.172;2023-02-28T12:19:49;5.50;91.70
8939;DHT22;4504;48.810;9.172;2023-02-28T12:22:29;5.60;91.50
8939;DHT22;4504;48.810;9.172;2023-02-28T12:25:21;5.70;91.20
8939;DHT22;4504;48.810;9.172;2023-02-28T12:27:49;5.70;91.20
8939;DHT22;4504;48.810;9.172;2023-02-28T12:30:22;5.80;90.90
8939;DHT22;4504;48.810;9.172;2023-02-28T12:32:54;5.90;90.80
8939;DHT22;4504;48.810;9.172;2023-02-28T12:35:25;5.90;90.70
8939;DHT22;4504;48.810;9.172;2023-02-28T12:37:56;6.00;90.40
8939;DHT22;4504;48.810;9.172;2023-02-28T12:40:33;6.10;90.30
8939;DHT22;4504;48.810;9.172;2023-02-28T12:43:07;6.10;90.40
8939;DHT22;4504;48.810;9.172;2023-02-28T12:45:43;6.20;91.50
8939;DHT22;4504;48.810;9.172;2023-02-28T12:48:15;6.40;90.90
8939;DHT22;4504;48.810;9.172;2023-02-28T12:50:45;6.50;90.10
8939;DHT22;4504;48.810;9.172;2023-02-28T12:53:20;6.60;90.10
8939;DHT22;4504;48.810;9.172;2023-02-28T12:55:57;6.70;88.40
8939;DHT22;4504;48.810;9.172;2023-02-28T12:58:30;6.80;88.40
8939;DHT22;4504;48.810;9.172;2023-02-28T13:01:34;6.80;86.30
8939;DHT22;4504;48.810;9.172;2023-02-28T13:04:45;6.70;85.70
8939;DHT22;4504;48.810;9.172;2023-02-28T13:10:15;6.40;85.20
8939;DHT22;4504;48.810;9.172;2023-02-28T13:12:50;6.20;85.40
8939;DHT22;4504;48.810;9.172;2023-02-28T13:15:19;6.30;86.60
8939;DHT22;4504;48.810;9.172;2023-02-28T13:17:51;6.40;87.30
8939;DHT22;4504;48.810;9.172;2023-02-28T13:20:20;6.50;86.80
8939;DHT22;4504;48.810;9.172;2023-02-28T13:22:49;6.70;85.60
8939;DHT22;4504;48.810;9.172;2023-02-28T13:25:51;6.70;85.00
8939;DHT22;4504;48.810;9.172;2023-02-28T13:34:36;6.90;83.70
8939;DHT22;4504;48.810;9.172;2023-02-28T13:37:37;7.10;83.70
8939;DHT22;4504;48.810;9.172;2023-02-28T13:40:27;7.20;83.70
8939;DHT22;4504;48.810;9.172;2023-02-28T13:42:55;7.10;81.20
8939;DHT22;4504;48.810;9.172;2023-02-28T13:45:25;7.00;81.90
8939;DHT22;4504;48.810;9.172;2023-02-28T13:47:54;7.10;82.60
8939;DHT22;4504;48.810;9.172;2023-02-28T13:50:33;7.20;82.20
8939;DHT22;4504;48.810;9.172;2023-02-28T13:53:46;7.40;81.80
8939;DHT22;4504;48.810;9.172;2023-02-28T13:56:32;7.40;80.80
8939;DHT22;4504;48.810;9.172;2023-02-28T13:59:12;7.50;81.40
8939;DHT22;4504;48.810;9.172;2023-02-28T14:01:52;7.60;79.60
8939;DHT22;4504;48.810;9.172;2023-02-28T14:04:46;7.70;79.60
8939;DHT22;4504;48.810;9.172;2023-02-28T14:07:21;7.70;79.40
8939;DHT22;4504;48.810;9.172;2023-02-28T14:09:56;7.80;78.70
8939;DHT22;4504;48.810;9.172;2023-02-28T14:12:59;8.00;78.40
8939;DHT22;4504;48.810;9.172;2023-02-28T14:15:46;8.00;77.10
8939;DHT22;4504;48.810;9.172;2023-02-28T14:18:21;8.00;76.60
8939;DHT22;4504;48.810;9.172;2023-02-28T14:20:50;8.00;76.10
8939;DHT22;4504;48.810;9.172;2023-02-28T14:23:32;7.90;76.20
8939;DHT22;4504;48.810;9.172;2023-02-28T14:26:05;7.90;76.30
8939;DHT22;4504;48.810;9.172;2023-02-28T14:28:45;8.00;76.80
8939;DHT22;4504;48.810;9.172;2023-02-28T14:31:21;8.00;77.20
8939;DHT22;4504;48.810;9.172;2023-02-28T14:34:13;8.00;78.50
8939;DHT22;4504;48.810;9.172;2023-02-28T14:36:44;8.00;76.30
8939;DHT22;4504;48.810;9.172;2023-02-28T14:39:14;8.00;77.60
8939;DHT22;4504;48.810;9.172;2023-02-28T14:41:43;8.00;76.80
8939;DHT22;4504;48.810;9.172;2023-02-28T14:44:15;8.10;76.90
8939;DHT22;4504;48.810;9.172;2023-02-28T14:46:44;8.20;76.00
8939;DHT22;4504;48.810;9.172;2023-02-28T14:49:19;8.20;75.50
8939;DHT22;4504;48.810;9.172;2023-02-28T14:51:48;8.10;74.90
8939;DHT22;4504;48.810;9.172;2023-02-28T14:54:20;8.10;75.60
8939;DHT22;4504;48.810;9.172;2023-02-28T14:56:50;8.10;75.90
8939;DHT22;4504;48.810;9.172;2023-02-28T14:59:25;8.20;76.10
8939;DHT22;4504;48.810;9.172;2023-02-28T15:02:17;8.30;75.00
8939;DHT22;4504;48.810;9.172;2023-02-28T15:04:52;8.10;74.00
8939;DHT22;4504;48.810;9.172;2023-02-28T15:07:20;8.10;74.70
8939;DHT22;4504;48.810;9.172;2023-02-28T15:10:11;8.10;74.80
8939;DHT22;4504;48.810;9.172;2023-02-28T15:12:39;8.10;74.90
8939;DHT22;4504;48.810;9.172;2023-02-28T15:15:14;8.10;75.80
8939;DHT22;4504;48.810;9.172;2023-02-28T15:17:45;8.10;74.90
8939;DHT22;4504;48.810;9.172;2023-02-28T15:20:14;8.00;75.00
8939;DHT22;4504;48.810;9.172;2023-02-28T15:22:42;7.90;75.50
8939;DHT22;4504;48.810;9.172;2023-02-28T15:25:14;8.00;75.90
8939;DHT22;4504;48.810;9.172;2023-02-28T15:27:45;8.00;75.70
8939;DHT22;4504;48.810;9.172;2023-02-28T15:30:17;8.00;75.30
8939;DHT22;4504;48.810;9.172;2023-02-28T15:32:44;7.90;75.40
8939;DHT22;4504;48.810;9.172;2023-02-28T15:35:20;7.80;76.20
8939;DHT22;4504;48.810;9.172;2023-02-28T15:37:50;7.90;76.50
8939;DHT22;4504;48.810;9.172;2023-02-28T15:40:25;7.80;76.00
8939;DHT22;4504;48.810;9.172;2023-02-28T15:43:03;7.80;76.30
8939;DHT22;4504;48.810;9.172;2023-02-28T15:45:36;7.80;76.60
8939;DHT22;4504;48.810;9.172;2023-02-28T15:48:17;7.80;76.40
8939;DHT22;4504;48.810;9.172;2023-02-28T15:50:48;7.70;76.00
8939;DHT22;4504;48.810;9.172;2023-02-28T15:53:17;7.70;76.10
8939;DHT22;4504;48.810;9.172;2023-02-28T15:55:53;7.60;76.50
8939;DHT22;4504;48.810;9.172;2023-02-28T15:58:21;7.60;77.20
8939;DHT22;4504;48.810;9.172;2023-02-28T16:01:01;7.50;77.20
8939;DHT22;4504;48.810;9.172;2023-02-28T16:03:39;7.50;77.50
8939;DHT22;4504;48.810;9.172;2023-02-28T16:06:24;7.50;77.50
8939;DHT22;4504;48.810;9.172;2023-02-28T16:08:52;7.40;77.70
8939;DHT22;4504;48.810;9.172;2023-02-28T16:11:21;7.30;77.90
8939;DHT22;4504;48.810;9.172;2023-02-28T16:13:50;7.20;77.80
8939;DHT22;4504;48.810;9.172;2023-02-28T16:16:18;7.20;78.40
8939;DHT22;4504;48.810;9.172;2023-02-28T16:18:46;7.10;78.70
8939;DHT22;4504;48.810;9.172;2023-02-28T16:21:13;7.00;78.90
8939;DHT22;4504;48.810;9.172;2023-02-28T16:23:40;7.00;79.30
8939;DHT22;4504;48.810;9.172;2023-02-28T16:26:10;7.00;79.40
8939;DHT22;4504;48.810;9.172;2023-02-28T16:28:40;6.90;79.30
8939;DHT22;4504;48.810;9.172;2023-02-28T16:31:07;6.90;79.70
8939;DHT22;4504;48.810;9.172;2023-02-28T16:33:36;6.80;79.80
8939;DHT22;4504;48.810;9.172;2023-02-28T16:36:05;6.80;80.20
8939;DHT22;4504;48.810;9.172;2023-02-28T16:38:32;6.70;80.50
8939;DHT22;4504;48.810;9.172;2023-02-28T16:41:00;6.70;80.70
8939;DHT22;4504;48.810;9.172;2023-02-28T16:43:27;6.70;81.00
8939;DHT22;4504;48.810;9.172;2023-02-28T16:45:56;6.60;81.20
8939;DHT22;4504;48.810;9.172;2023-02-28T16:48:24;6.50;81.70
8939;DHT22;4504;48.810;9.172;2023-02-28T16:50:51;6.50;82.10
8939;DHT22;4504;48.810;9.172;2023-02-28T16:53:19;6.50;81.80
8939;DHT22;4504;48.810;9.172;2023-02-28T16:55:46;6.50;81.80
8939;DHT22;4504;48.810;9.172;2023-02-28T16:58:15;6.40;81.80
8939;DHT22;4504;48.810;9.172;2023-02-28T17:00:43;6.40;82.10
8939;DHT22;4504;48.810;9.172;2023-02-28T17:03:20;6.30;82.10